createdAt,value
2023-05-01T00:00:48.857Z,8.3769
2023-05-01T00:01:51.788Z,7.5154
2023-05-01T00:02:54.838Z,9.4000
2023-05-01T00:03:58.026Z,9.3077
2023-05-01T00:05:00.796Z,8.9077
2023-05-01T00:06:03.612Z,7.8077
2023-05-01T00:07:06.522Z,11.6077
2023-05-01T00:08:09.463Z,7.5846
2023-05-01T00:09:12.435Z,7.0231
2023-05-01T00:10:15.430Z,9.3385
2023-05-01T00:11:18.349Z,8.7000
2023-05-01T00:12:21.228Z,9.2462
2023-05-01T00:13:24.210Z,6.7000
2023-05-01T00:14:27.107Z,8.1385
2023-05-01T00:15:30.096Z,6.1538
2023-05-01T00:16:33.156Z,7.0538
2023-05-01T00:17:36.039Z,6.1154
2023-05-01T00:18:38.942Z,6.3385
2023-05-01T00:19:41.845Z,7.0231
2023-05-01T00:20:44.823Z,6.1000
2023-05-01T00:21:47.743Z,6.4846
2023-05-01T00:22:50.699Z,5.8692
2023-05-01T00:23:53.609Z,5.8846
2023-05-01T00:24:56.573Z,7.1385
2023-05-01T00:25:59.622Z,6.2538
2023-05-01T00:27:02.459Z,6.8000
2023-05-01T00:28:05.418Z,6.5462
2023-05-01T00:29:08.338Z,6.2231
2023-05-01T00:30:11.294Z,7.1231
2023-05-01T00:31:14.248Z,8.2231
2023-05-01T00:32:17.316Z,6.2000
2023-05-01T00:33:20.110Z,8.3308
2023-05-01T00:34:23.066Z,7.5000
2023-05-01T00:35:26.008Z,6.6462
2023-05-01T00:36:28.948Z,8.5538
2023-05-01T00:37:31.972Z,5.7538
2023-05-01T00:38:34.926Z,7.0692
2023-05-01T00:39:37.848Z,6.4077
2023-05-01T00:40:40.924Z,7.3923
2023-05-01T00:41:43.749Z,6.5769
2023-05-01T00:42:46.696Z,6.8769
2023-05-01T00:43:49.675Z,8.0846
2023-05-01T00:44:52.587Z,7.1615
2023-05-01T00:45:55.539Z,6.3615
2023-05-01T00:46:58.489Z,6.5154
2023-05-01T00:48:01.469Z,8.3538
2023-05-01T00:49:04.350Z,7.3231
2023-05-01T00:50:07.289Z,6.8154
2023-05-01T00:51:10.244Z,7.7462
2023-05-01T00:52:13.209Z,6.8385
2023-05-01T00:53:16.140Z,9.5615
2023-05-01T00:54:19.070Z,7.7769
2023-05-01T00:55:22.020Z,6.7462
2023-05-01T00:56:24.975Z,8.5923
2023-05-01T00:57:27.913Z,7.9385
2023-05-01T00:58:30.851Z,7.4231
2023-05-01T00:59:33.780Z,7.4077
2023-05-01T01:00:36.712Z,6.7462
2023-05-01T01:01:39.676Z,7.4769
2023-05-01T01:02:42.635Z,8.1231
2023-05-01T01:03:45.596Z,6.7846
2023-05-01T01:04:48.626Z,8.3462
2023-05-01T01:05:51.479Z,8.2615
2023-05-01T01:06:54.389Z,7.8462
2023-05-01T01:07:57.318Z,7.1000
2023-05-01T01:09:00.264Z,8.1923
2023-05-01T01:10:03.201Z,9.7308
2023-05-01T01:11:06.134Z,11.4462
2023-05-01T01:12:09.078Z,8.3615
2023-05-01T01:13:12.025Z,8.6692
2023-05-01T01:14:15.097Z,7.5769
2023-05-01T01:15:17.945Z,7.7692
2023-05-01T01:16:20.921Z,6.5692
2023-05-01T01:17:23.813Z,7.6692
2023-05-01T01:18:26.793Z,8.4385
2023-05-01T01:19:29.698Z,9.0615
2023-05-01T01:20:32.632Z,8.9462
2023-05-01T01:21:35.572Z,8.0077
2023-05-01T01:22:38.503Z,7.5462
2023-05-01T01:23:41.444Z,9.4154
2023-05-01T01:24:44.390Z,8.4077
2023-05-01T01:25:47.346Z,7.4308
2023-05-01T01:26:50.335Z,6.9846
2023-05-01T01:27:53.217Z,7.9615
2023-05-01T01:28:56.146Z,6.9308
2023-05-01T01:29:59.130Z,8.7077
2023-05-01T01:31:02.111Z,9.1462
2023-05-01T01:32:04.998Z,8.6154
2023-05-01T01:33:07.983Z,10.0923
2023-05-01T01:34:10.845Z,7.6385
2023-05-01T01:35:13.831Z,8.4692
2023-05-01T01:36:16.756Z,6.8308
2023-05-01T01:37:19.701Z,7.9769
2023-05-01T01:38:22.692Z,7.0385
2023-05-01T01:39:25.728Z,6.9000
2023-05-01T01:40:28.578Z,7.0923
2023-05-01T01:41:31.459Z,8.4462
2023-05-01T01:42:34.404Z,8.2769
2023-05-01T01:43:37.326Z,7.6923
2023-05-01T01:44:40.270Z,6.9385
2023-05-01T01:45:43.279Z,8.5923
2023-05-01T01:46:46.185Z,9.1077
2023-05-01T01:47:49.174Z,7.9385
2023-05-01T01:48:52.047Z,8.2615
2023-05-01T01:49:55.172Z,7.7692
2023-05-01T01:50:57.916Z,7.0846
2023-05-01T01:52:00.872Z,7.4000
2023-05-01T01:53:03.831Z,7.4462
2023-05-01T01:54:06.770Z,7.6000
2023-05-01T01:55:09.858Z,9.3923
2023-05-01T01:56:12.780Z,7.3923
2023-05-01T01:57:15.569Z,7.1923
2023-05-01T01:58:18.632Z,7.5769
2023-05-01T01:59:21.503Z,7.3385
2023-05-01T02:00:24.401Z,7.0231
2023-05-01T02:01:27.362Z,7.6769
2023-05-01T02:02:30.359Z,7.0923
2023-05-01T02:03:33.405Z,8.2231
2023-05-01T02:04:36.208Z,7.4846
2023-05-01T02:05:39.102Z,6.4846
2023-05-01T02:06:42.084Z,7.1923
2023-05-01T02:07:44.984Z,6.8846
2023-05-01T02:08:48.007Z,8.2923
2023-05-01T02:09:50.891Z,8.5231
2023-05-01T02:10:53.860Z,8.4000
2023-05-01T02:11:56.821Z,7.7923
2023-05-01T02:12:59.730Z,9.9000
2023-05-01T02:14:02.832Z,7.9538
2023-05-01T02:15:05.618Z,8.0769
2023-05-01T02:16:08.579Z,7.8846
2023-05-01T02:17:11.480Z,8.8308
2023-05-01T02:18:14.453Z,8.0000
2023-05-01T02:19:17.390Z,7.0308
2023-05-01T02:20:20.448Z,8.0692
2023-05-01T02:21:23.263Z,7.7615
2023-05-01T02:22:26.202Z,7.9077
2023-05-01T02:23:29.175Z,7.9615
2023-05-01T02:24:32.095Z,8.6308
2023-05-01T02:25:35.063Z,8.2000
2023-05-01T02:26:37.992Z,7.7000
2023-05-01T02:27:40.917Z,7.7231
2023-05-01T02:28:43.859Z,7.8308
2023-05-01T02:29:46.814Z,8.1923
2023-05-01T02:30:49.744Z,7.2231
2023-05-01T02:31:52.745Z,7.4462
2023-05-01T02:32:55.654Z,7.7154
2023-05-01T02:33:58.596Z,6.9692
2023-05-01T02:35:01.517Z,7.7077
2023-05-01T02:36:04.494Z,7.0000
2023-05-01T02:37:07.404Z,8.1846
2023-05-01T02:38:10.354Z,7.4000
2023-05-01T02:39:13.277Z,6.4077
2023-05-01T02:40:16.230Z,7.8154
2023-05-01T02:41:19.204Z,7.3769
2023-05-01T02:42:22.150Z,10.3000
2023-05-01T02:43:25.061Z,7.8154
2023-05-01T02:44:28.169Z,10.3308
2023-05-01T02:45:30.951Z,7.9846
2023-05-01T02:46:33.947Z,8.2231
2023-05-01T02:47:36.848Z,8.3154
2023-05-01T02:48:39.769Z,8.7000
2023-05-01T02:49:42.710Z,8.6231
2023-05-01T02:50:45.656Z,7.8154
2023-05-01T02:51:48.611Z,8.1615
2023-05-01T02:52:51.618Z,7.3231
2023-05-01T02:53:54.487Z,8.5923
2023-05-01T02:54:57.419Z,8.0923
2023-05-01T02:56:00.360Z,7.9615
2023-05-01T02:57:03.324Z,7.2154
2023-05-01T02:58:06.278Z,7.9923
2023-05-01T02:59:09.201Z,9.5077
2023-05-01T03:00:12.131Z,7.5692
2023-05-01T03:01:15.137Z,8.5308
2023-05-01T03:02:18.011Z,9.6308
2023-05-01T03:03:21.018Z,7.8000
2023-05-01T03:04:23.962Z,7.1692
2023-05-01T03:05:26.914Z,9.0538
2023-05-01T03:06:29.826Z,8.1615
2023-05-01T03:07:32.737Z,9.4308
2023-05-01T03:08:35.687Z,7.8385
2023-05-01T03:09:38.636Z,7.1000
2023-05-01T03:10:41.552Z,8.4077
2023-05-01T03:11:44.501Z,8.8000
2023-05-01T03:12:47.481Z,7.4000
2023-05-01T03:13:50.390Z,7.5308
2023-05-01T03:14:53.324Z,8.0385
2023-05-01T03:15:56.332Z,8.8154
2023-05-01T03:16:59.288Z,7.5154
2023-05-01T03:18:02.214Z,7.9615
2023-05-01T03:19:05.093Z,9.3308
2023-05-01T03:20:08.051Z,8.3462
2023-05-01T03:21:10.979Z,8.7308
2023-05-01T03:22:13.926Z,8.4923
2023-05-01T03:23:16.878Z,8.1923
2023-05-01T03:24:19.808Z,8.9231
2023-05-01T03:25:22.741Z,8.2462
2023-05-01T03:26:25.707Z,8.9538
2023-05-01T03:27:28.676Z,8.8077
2023-05-01T03:28:31.640Z,9.6308
2023-05-01T03:29:34.522Z,8.5769
2023-05-01T03:30:37.474Z,8.7308
2023-05-01T03:31:40.440Z,8.7462
2023-05-01T03:32:43.403Z,7.8231
2023-05-01T03:33:46.302Z,9.4692
2023-05-01T03:34:49.237Z,9.2769
2023-05-01T03:35:52.191Z,8.3385
2023-05-01T03:36:55.141Z,7.7692
2023-05-01T03:37:58.078Z,7.7231
2023-05-01T03:39:01.030Z,8.4846
2023-05-01T03:40:03.922Z,8.5462
2023-05-01T03:41:06.893Z,8.3846
2023-05-01T03:42:09.817Z,8.8308
2023-05-01T03:43:12.765Z,9.2231
2023-05-01T03:44:15.703Z,9.4308
2023-05-01T03:45:18.660Z,8.6769
2023-05-01T03:46:21.682Z,9.1231
2023-05-01T03:47:24.574Z,7.8000
2023-05-01T03:48:27.455Z,8.8385
2023-05-01T03:49:30.418Z,8.8615
2023-05-01T03:50:33.401Z,8.9615
2023-05-01T03:51:36.283Z,9.6923
2023-05-01T03:52:39.221Z,9.3923
2023-05-01T03:53:42.209Z,8.4154
2023-05-01T03:54:45.125Z,8.0077
2023-05-01T03:55:48.042Z,8.6846
2023-05-01T03:56:50.979Z,8.3000
2023-05-01T03:57:53.926Z,10.6846
2023-05-01T03:58:56.892Z,8.3385
2023-05-01T03:59:59.808Z,9.2231
2023-05-01T04:01:02.749Z,8.6846
2023-05-01T04:02:05.777Z,9.5231
2023-05-01T04:03:08.737Z,10.1231
2023-05-01T04:04:11.619Z,9.4769
2023-05-01T04:05:14.586Z,7.6000
2023-05-01T04:06:17.602Z,9.1385
2023-05-01T04:07:20.622Z,7.9385
2023-05-01T04:08:23.354Z,7.8769
2023-05-01T04:09:26.307Z,7.4538
2023-05-01T04:10:29.242Z,8.2769
2023-05-01T04:11:32.165Z,9.0154
2023-05-01T04:12:35.104Z,8.2462
2023-05-01T04:13:38.049Z,8.5154
2023-05-01T04:14:41.004Z,8.4923
2023-05-01T04:15:44.130Z,9.6385
2023-05-01T04:16:46.884Z,8.7231
2023-05-01T04:17:49.853Z,8.4000
2023-05-01T04:18:52.841Z,7.9538
2023-05-01T04:19:55.920Z,8.5154
2023-05-01T04:20:58.675Z,8.4769
2023-05-01T04:22:01.742Z,8.6385
2023-05-01T04:23:04.525Z,9.6692
2023-05-01T04:24:07.634Z,8.2846
2023-05-01T04:25:10.445Z,10.2077
2023-05-01T04:26:13.358Z,10.2385
2023-05-01T04:27:16.306Z,9.4923
2023-05-01T04:28:19.262Z,8.1769
2023-05-01T04:29:22.173Z,8.7231
2023-05-01T04:30:25.121Z,9.4308
2023-05-01T04:31:28.111Z,8.4308
2023-05-01T04:32:31.080Z,10.0923
2023-05-01T04:33:33.941Z,10.5923
2023-05-01T04:34:36.893Z,8.9538
2023-05-01T04:35:39.875Z,9.7846
2023-05-01T04:36:42.780Z,10.7077
2023-05-01T04:37:45.710Z,9.4692
2023-05-01T04:38:48.780Z,10.1231
2023-05-01T04:39:51.639Z,8.9000
2023-05-01T04:40:54.541Z,10.3000
2023-05-01T04:41:57.502Z,10.1077
2023-05-01T04:43:00.427Z,10.5846
2023-05-01T04:44:03.375Z,10.3615
2023-05-01T04:45:06.330Z,8.4154
2023-05-01T04:46:09.329Z,8.5538
2023-05-01T04:47:12.650Z,9.1615
2023-05-01T04:48:15.213Z,9.9077
2023-05-01T04:49:18.199Z,10.1692
2023-05-01T04:50:21.083Z,10.0923
2023-05-01T04:51:24.040Z,9.4385
2023-05-01T04:52:26.952Z,9.1846
2023-05-01T04:53:30.037Z,9.4462
2023-05-01T04:54:32.986Z,9.4308
2023-05-01T04:55:35.925Z,9.7615
2023-05-01T04:56:38.883Z,9.6308
2023-05-01T04:57:41.712Z,9.2462
2023-05-01T04:58:44.610Z,9.1615
2023-05-01T04:59:47.595Z,9.1923
2023-05-01T05:00:50.497Z,8.7231
2023-05-01T05:01:53.481Z,9.8154
2023-05-01T05:02:56.478Z,8.7308
2023-05-01T05:03:59.467Z,9.6846
2023-05-01T05:05:02.276Z,8.5538
2023-05-01T05:06:05.291Z,8.2385
2023-05-01T05:07:08.154Z,8.6615
2023-05-01T05:08:11.099Z,8.6538
2023-05-01T05:09:14.042Z,9.2154
2023-05-01T05:10:16.983Z,9.1462
2023-05-01T05:11:19.905Z,8.2385
2023-05-01T05:12:22.957Z,8.4462
2023-05-01T05:13:25.852Z,8.9846
2023-05-01T05:14:28.745Z,9.2000
2023-05-01T05:15:31.685Z,8.6308
2023-05-01T05:16:34.679Z,8.4615
2023-05-01T05:17:37.657Z,8.9154
2023-05-01T05:18:40.512Z,8.2385
2023-05-01T05:19:43.451Z,8.8923
2023-05-01T05:20:46.411Z,9.1231
2023-05-01T05:21:49.318Z,9.5308
2023-05-01T05:22:52.283Z,9.4692
2023-05-01T05:23:55.203Z,8.9154
2023-05-01T05:24:58.190Z,9.1923
2023-05-01T05:26:01.114Z,8.8000
2023-05-01T05:27:04.073Z,8.3846
2023-05-01T05:28:07.058Z,7.9231
2023-05-01T05:29:09.964Z,13.2615
2023-05-01T05:30:12.890Z,35.9231
2023-05-01T05:31:15.834Z,36.2385
2023-05-01T05:32:18.876Z,10.6615
2023-05-01T05:33:21.726Z,9.0308
2023-05-01T05:34:24.666Z,8.5000
2023-05-01T05:35:27.617Z,8.8538
2023-05-01T05:36:30.537Z,8.3538
2023-05-01T05:37:33.481Z,9.3538
2023-05-01T05:38:36.437Z,8.5385
2023-05-01T05:39:39.390Z,8.3615
2023-05-01T05:40:42.316Z,9.0538
2023-05-01T05:41:45.276Z,8.7538
2023-05-01T05:42:48.204Z,9.0538
2023-05-01T05:43:51.168Z,8.3077
2023-05-01T05:44:54.108Z,7.9615
2023-05-01T05:45:57.080Z,8.3231
2023-05-01T05:46:59.987Z,8.7923
2023-05-01T05:48:03.043Z,8.1231
2023-05-01T05:49:05.863Z,7.7615
2023-05-01T05:50:08.843Z,8.6538
2023-05-01T05:51:11.770Z,8.6538
2023-05-01T05:52:14.716Z,7.3846
2023-05-01T05:53:17.665Z,8.0923
2023-05-01T05:54:20.609Z,8.4077
2023-05-01T05:55:23.545Z,14.4538
2023-05-01T05:56:26.503Z,17.8846
2023-05-01T05:57:29.439Z,11.7692
2023-05-01T05:58:32.379Z,9.1077
2023-05-01T05:59:35.337Z,8.5385
2023-05-01T06:00:38.263Z,9.2308
2023-05-01T06:01:41.221Z,8.4615
2023-05-01T06:02:44.268Z,8.3308
2023-05-01T06:03:47.199Z,8.2077
2023-05-01T06:04:50.103Z,8.9077
2023-05-01T06:05:56.518Z,10.1077
2023-05-01T06:06:56.081Z,9.5000
2023-05-01T06:07:58.896Z,9.5462
2023-05-01T06:09:02.070Z,9.2000
2023-05-01T06:10:04.788Z,10.3000
2023-05-01T06:11:07.849Z,9.2615
2023-05-01T06:12:10.683Z,9.8923
2023-05-01T06:13:14.697Z,10.7462
2023-05-01T06:14:16.548Z,8.6615
2023-05-01T06:15:19.511Z,8.9769
2023-05-01T06:16:22.478Z,9.1308
2023-05-01T06:17:25.408Z,10.4154
2023-05-01T06:18:28.343Z,10.5923
2023-05-01T06:19:31.292Z,10.0692
2023-05-01T06:20:34.209Z,10.6692
2023-05-01T06:21:37.166Z,10.0462
2023-05-01T06:22:40.143Z,10.9231
2023-05-01T06:23:43.055Z,11.0769
2023-05-01T06:24:46.056Z,10.8385
2023-05-01T06:25:48.938Z,10.3077
2023-05-01T06:26:51.919Z,10.6000
2023-05-01T06:27:54.831Z,10.0308
2023-05-01T06:28:57.755Z,14.4846
2023-05-01T06:30:00.742Z,11.8154
2023-05-01T06:31:03.841Z,14.2000
2023-05-01T06:32:06.619Z,11.8462
2023-05-01T06:33:09.548Z,13.1385
2023-05-01T06:34:12.486Z,11.2308
2023-05-01T06:35:15.406Z,11.6154
2023-05-01T06:36:18.360Z,12.5231
2023-05-01T06:37:21.309Z,11.4231
2023-05-01T06:38:26.887Z,10.8231
2023-05-01T06:39:27.202Z,11.2231
2023-05-01T06:40:30.263Z,11.2846
2023-05-01T06:41:33.106Z,11.1692
2023-05-01T06:42:36.180Z,12.8154
2023-05-01T06:43:38.954Z,11.7154
2023-05-01T06:44:42.036Z,11.9692
2023-05-01T06:45:44.831Z,11.6000
2023-05-01T06:46:47.802Z,12.4462
2023-05-01T06:47:50.775Z,10.8000
2023-05-01T06:48:53.664Z,10.4154
2023-05-01T06:49:56.878Z,9.7231
2023-05-01T06:50:59.918Z,10.8231
2023-05-01T06:52:02.495Z,10.7923
2023-05-01T06:53:05.429Z,11.2000
2023-05-01T06:54:08.373Z,12.5077
2023-05-01T06:55:11.602Z,12.2923
2023-05-01T06:56:14.263Z,9.6000
2023-05-01T06:57:17.266Z,10.9462
2023-05-01T06:58:23.924Z,11.3538
2023-05-01T06:59:23.078Z,12.3538
2023-05-01T07:00:26.054Z,11.1846
2023-05-01T07:01:28.989Z,11.8846
2023-05-01T07:02:31.988Z,11.5000
2023-05-01T07:03:34.954Z,10.9538
2023-05-01T07:04:37.743Z,12.9000
2023-05-01T07:05:40.698Z,11.9692
2023-05-01T07:06:43.704Z,10.5769
2023-05-01T07:07:57.808Z,10.7692
2023-05-01T07:08:49.571Z,11.5077
2023-05-01T07:09:52.502Z,11.6385
2023-05-01T07:10:55.391Z,11.3154
2023-05-01T07:11:58.331Z,12.0692
2023-05-01T07:13:01.296Z,9.9923
2023-05-01T07:14:04.225Z,10.1385
2023-05-01T07:15:07.143Z,10.3846
2023-05-01T07:16:10.179Z,9.3769
2023-05-01T07:17:13.069Z,9.6846
2023-05-01T07:18:16.003Z,11.1538
2023-05-01T07:19:18.929Z,8.7615
2023-05-01T07:20:21.901Z,8.4000
2023-05-01T07:21:24.789Z,10.1308
2023-05-01T07:22:27.735Z,9.4000
2023-05-01T07:23:30.710Z,8.0385
2023-05-01T07:24:33.614Z,9.7538
2023-05-01T07:25:36.606Z,6.5692
2023-05-01T07:26:39.576Z,4.9846
2023-05-01T07:27:42.445Z,4.3615
2023-05-01T07:28:45.519Z,5.0538
2023-05-01T07:29:48.353Z,5.2615
2023-05-01T07:30:51.342Z,5.5000
2023-05-01T07:31:54.295Z,5.4154
2023-05-01T07:32:57.211Z,6.1000
2023-05-01T07:34:00.097Z,6.4154
2023-05-01T07:35:03.072Z,4.5462
2023-05-01T07:36:05.975Z,11.8385
2023-05-01T07:37:08.936Z,20.1385
2023-05-01T07:38:11.832Z,18.4538
2023-05-01T07:39:14.841Z,5.1231
2023-05-01T07:40:17.963Z,4.4385
2023-05-01T07:41:20.665Z,3.7000
2023-05-01T07:42:23.610Z,4.3308
2023-05-01T07:43:26.559Z,3.9308
2023-05-01T07:44:29.614Z,3.6538
2023-05-01T07:45:32.470Z,3.3231
2023-05-01T07:46:35.430Z,4.2538
2023-05-01T07:47:38.422Z,3.9077
2023-05-01T07:48:41.225Z,3.9923
2023-05-01T07:49:44.201Z,3.8692
2023-05-01T07:50:47.178Z,3.1308
2023-05-01T07:51:50.120Z,2.8923
2023-05-01T07:52:53.014Z,3.5615
2023-05-01T07:53:55.972Z,5.2769
2023-05-01T07:54:58.908Z,2.8077
2023-05-01T07:56:01.895Z,2.3154
2023-05-01T07:57:04.800Z,3.5154
2023-05-01T07:58:07.817Z,2.7231
2023-05-01T07:59:10.692Z,5.6231
2023-05-01T08:00:13.654Z,5.3615
2023-05-01T08:01:16.608Z,3.3077
2023-05-01T08:02:19.625Z,5.6385
2023-05-01T08:03:22.741Z,4.8154
2023-05-01T08:04:25.490Z,3.0385
2023-05-01T08:05:28.518Z,2.8538
2023-05-01T08:06:31.428Z,5.4077
2023-05-01T08:07:34.253Z,6.3615
2023-05-01T08:08:37.256Z,4.9538
2023-05-01T08:09:40.165Z,5.7846
2023-05-01T08:10:43.116Z,3.1538
2023-05-01T08:11:46.179Z,2.3385
2023-05-01T08:12:48.997Z,3.1923
2023-05-01T08:13:51.983Z,2.6308
2023-05-01T08:14:54.891Z,2.1923
2023-05-01T08:15:57.909Z,3.1231
2023-05-01T08:17:00.802Z,3.2077
2023-05-01T08:18:03.817Z,1.9615
2023-05-01T08:19:06.698Z,3.2769
2023-05-01T08:20:09.645Z,2.6000
2023-05-01T08:21:12.623Z,3.1538
2023-05-01T08:22:15.541Z,6.6462
2023-05-01T08:23:18.655Z,4.8692
2023-05-01T08:24:21.426Z,4.3385
2023-05-01T08:25:24.386Z,2.7000
2023-05-01T08:26:27.326Z,2.6385
2023-05-01T08:27:30.290Z,4.9077
2023-05-01T08:28:33.391Z,5.7154
2023-05-01T08:29:36.186Z,3.1923
2023-05-01T08:30:39.214Z,3.7615
2023-05-01T08:31:42.096Z,3.5538
2023-05-01T08:32:45.068Z,3.8615
2023-05-01T08:33:47.961Z,3.7308
2023-05-01T08:34:50.946Z,3.7615
2023-05-01T08:35:53.866Z,3.5077
2023-05-01T08:36:56.813Z,2.8000
2023-05-01T08:37:59.749Z,2.8000
2023-05-01T08:39:02.694Z,2.9923
2023-05-01T08:40:05.660Z,2.4923
2023-05-01T08:41:08.596Z,4.9769
2023-05-01T08:42:11.539Z,3.9000
2023-05-01T08:43:14.481Z,2.1615
2023-05-01T08:44:17.429Z,3.2769
2023-05-01T08:45:20.398Z,4.1923
2023-05-01T08:46:23.405Z,3.0692
2023-05-01T08:47:26.282Z,2.7615
2023-05-01T08:48:29.205Z,3.2846
2023-05-01T08:49:32.285Z,3.7308
2023-05-01T08:50:35.148Z,3.0154
2023-05-01T08:51:38.075Z,2.9538
2023-05-01T08:52:41.012Z,2.1308
2023-05-01T08:53:44.018Z,2.3077
2023-05-01T08:54:46.998Z,2.7077
2023-05-01T08:55:49.933Z,3.8385
2023-05-01T08:56:52.871Z,2.2538
2023-05-01T08:57:55.840Z,2.8923
2023-05-01T08:58:58.767Z,2.6385
2023-05-01T09:00:01.733Z,2.3154
2023-05-01T09:01:04.673Z,3.6385
2023-05-01T09:02:07.738Z,4.3538
2023-05-01T09:03:10.630Z,2.4231
2023-05-01T09:04:13.705Z,1.8538
2023-05-01T09:05:16.483Z,4.1385
2023-05-01T09:06:19.561Z,4.2923
2023-05-01T09:07:22.363Z,2.6923
2023-05-01T09:08:25.283Z,2.7308
2023-05-01T09:09:28.231Z,1.8692
2023-05-01T09:10:32.935Z,2.1385
2023-05-01T09:11:34.100Z,2.3615
2023-05-01T09:12:37.068Z,1.4154
2023-05-01T09:13:40.053Z,1.2615
2023-05-01T09:14:42.939Z,4.1308
2023-05-01T09:15:45.964Z,3.1154
2023-05-01T09:16:48.905Z,2.5615
2023-05-01T09:17:52.060Z,1.7846
2023-05-01T09:18:54.687Z,2.2462
2023-05-01T09:19:57.880Z,4.6154
2023-05-01T09:21:00.566Z,2.8308
2023-05-01T09:22:03.510Z,2.8462
2023-05-01T09:23:06.569Z,2.9231
2023-05-01T09:24:09.505Z,2.8000
2023-05-01T09:25:12.361Z,1.8077
2023-05-01T09:26:15.294Z,2.4231
2023-05-01T09:27:18.219Z,5.0923
2023-05-01T09:28:21.208Z,3.7231
2023-05-01T09:29:24.188Z,2.2385
2023-05-01T09:30:27.022Z,3.3846
2023-05-01T09:31:30.013Z,2.7385
2023-05-01T09:32:32.905Z,2.6231
2023-05-01T09:33:35.880Z,2.6308
2023-05-01T09:34:38.792Z,3.0385
2023-05-01T09:35:41.721Z,2.4769
2023-05-01T09:36:44.730Z,3.3308
2023-05-01T09:37:48.115Z,3.1462
2023-05-01T09:38:50.551Z,2.1538
2023-05-01T09:39:53.514Z,2.1000
2023-05-01T09:40:56.624Z,1.8692
2023-05-01T09:41:59.385Z,3.5000
2023-05-01T09:43:02.308Z,3.0000
2023-05-01T09:44:05.280Z,3.5769
2023-05-01T09:45:08.200Z,1.9385
2023-05-01T09:46:11.192Z,2.7846
2023-05-01T09:47:14.122Z,2.5769
2023-05-01T09:48:17.012Z,1.8462
2023-05-01T09:49:19.957Z,2.0308
2023-05-01T09:50:22.937Z,2.3923
2023-05-01T09:51:25.835Z,2.3231
2023-05-01T09:52:28.801Z,2.7154
2023-05-01T09:53:31.707Z,2.6231
2023-05-01T09:54:34.661Z,1.9692
2023-05-01T09:55:37.659Z,1.5385
2023-05-01T09:56:40.555Z,1.6000
2023-05-01T09:57:43.477Z,1.9154
2023-05-01T09:58:46.423Z,2.3154
2023-05-01T09:59:49.505Z,1.8308
2023-05-01T10:00:52.361Z,1.5231
2023-05-01T10:01:55.365Z,2.5769
2023-05-01T10:02:58.787Z,2.0462
2023-05-01T10:04:01.232Z,2.8769
2023-05-01T10:05:04.088Z,2.6000
2023-05-01T10:06:07.158Z,2.3923
2023-05-01T10:07:09.972Z,2.0538
2023-05-01T10:08:12.900Z,2.4308
2023-05-01T10:09:15.846Z,1.8308
2023-05-01T10:10:18.848Z,1.5846
2023-05-01T10:11:21.738Z,1.9077
2023-05-01T10:12:24.695Z,2.1154
2023-05-01T10:13:27.675Z,1.6769
2023-05-01T10:14:30.592Z,2.0615
2023-05-01T10:15:33.562Z,2.0538
2023-05-01T10:16:36.578Z,1.7077
2023-05-01T10:17:39.508Z,1.6154
2023-05-01T10:18:42.398Z,1.5385
2023-05-01T10:19:45.331Z,1.2154
2023-05-01T10:20:48.318Z,1.3615
2023-05-01T10:21:51.217Z,1.6462
2023-05-01T10:22:54.372Z,4.5846
2023-05-01T10:23:57.120Z,2.0462
2023-05-01T10:25:00.069Z,1.5000
2023-05-01T10:26:04.032Z,2.0538
2023-05-01T10:27:05.991Z,1.3077
2023-05-01T10:28:08.931Z,1.1769
2023-05-01T10:29:11.867Z,1.4923
2023-05-01T10:30:14.808Z,1.6308
2023-05-01T10:31:17.812Z,1.2385
2023-05-01T10:32:20.696Z,1.1385
2023-05-01T10:33:23.860Z,1.4769
2023-05-01T10:34:28.452Z,2.1769
2023-05-01T10:35:29.579Z,1.9000
2023-05-01T10:36:32.515Z,2.2846
2023-05-01T10:37:35.429Z,1.0538
2023-05-01T10:38:38.410Z,1.4692
2023-05-01T10:39:41.354Z,1.2154
2023-05-01T10:40:44.317Z,0.9769
2023-05-01T10:41:47.242Z,2.8769
2023-05-01T10:42:50.207Z,2.0769
2023-05-01T10:43:53.116Z,2.5077
2023-05-01T10:44:56.283Z,1.3462
2023-05-01T10:45:59.076Z,1.5846
2023-05-01T10:47:01.958Z,1.7154
2023-05-01T10:48:04.952Z,1.6308
2023-05-01T10:49:07.824Z,1.2615
2023-05-01T10:50:10.762Z,1.4077
2023-05-01T10:51:13.699Z,2.1154
2023-05-01T10:52:16.731Z,2.4538
2023-05-01T10:53:19.603Z,2.7769
2023-05-01T10:54:22.521Z,2.0692
2023-05-01T10:55:25.480Z,2.1154
2023-05-01T10:56:28.462Z,2.2077
2023-05-01T10:57:31.350Z,1.7846
2023-05-01T10:58:34.271Z,1.0538
2023-05-01T10:59:37.290Z,1.4923
2023-05-01T11:00:40.140Z,3.2538
2023-05-01T11:01:43.324Z,2.4846
2023-05-01T11:02:46.082Z,3.8615
2023-05-01T11:03:48.975Z,2.5000
2023-05-01T11:04:52.031Z,2.6615
2023-05-01T11:05:54.966Z,4.7077
2023-05-01T11:06:57.829Z,2.2000
2023-05-01T11:08:00.881Z,3.1462
2023-05-01T11:09:03.677Z,2.1462
2023-05-01T11:10:06.612Z,2.6385
2023-05-01T11:11:09.545Z,3.6308
2023-05-01T11:12:12.500Z,2.1077
2023-05-01T11:13:15.419Z,2.2769
2023-05-01T11:14:18.357Z,2.9846
2023-05-01T11:15:21.297Z,3.1692
2023-05-01T11:16:24.285Z,3.1692
2023-05-01T11:17:27.198Z,4.1538
2023-05-01T11:18:30.144Z,2.9154
2023-05-01T11:19:33.130Z,2.7846
2023-05-01T11:20:36.039Z,2.0462
2023-05-01T11:21:38.975Z,2.9308
2023-05-01T11:22:41.899Z,2.7615
2023-05-01T11:23:44.818Z,3.9538
2023-05-01T11:24:47.744Z,4.5000
2023-05-01T11:25:50.771Z,2.2615
2023-05-01T11:26:53.701Z,3.6769
2023-05-01T11:27:56.716Z,1.8385
2023-05-01T11:28:59.504Z,2.4231
2023-05-01T11:30:02.472Z,2.4154
2023-05-01T11:31:05.411Z,1.5462
2023-05-01T11:32:08.451Z,3.7769
2023-05-01T11:33:11.378Z,1.9154
2023-05-01T11:34:14.202Z,2.5615
2023-05-01T11:35:17.177Z,3.1000
2023-05-01T11:36:20.112Z,1.8846
2023-05-01T11:37:23.117Z,1.8538
2023-05-01T11:38:25.973Z,1.6692
2023-05-01T11:39:28.899Z,2.4692
2023-05-01T11:40:31.860Z,3.8462
2023-05-01T11:41:34.791Z,2.2615
2023-05-01T11:42:37.788Z,2.8615
2023-05-01T11:43:40.672Z,2.1000
2023-05-01T11:44:43.609Z,2.9538
2023-05-01T11:45:46.588Z,4.7462
2023-05-01T11:46:49.545Z,2.5308
2023-05-01T11:47:52.466Z,2.7308
2023-05-01T11:48:55.365Z,3.1692
2023-05-01T11:49:58.331Z,2.6692
2023-05-01T11:51:01.257Z,2.7692
2023-05-01T11:52:04.213Z,3.6462
2023-05-01T11:53:07.128Z,3.1615
2023-05-01T11:54:10.079Z,3.1231
2023-05-01T11:55:13.044Z,2.9385
2023-05-01T11:56:25.399Z,2.7846
2023-05-01T11:57:18.903Z,1.8462
2023-05-01T11:58:21.981Z,2.2846
2023-05-01T11:59:24.760Z,1.9231
2023-05-01T12:00:27.740Z,2.2462
2023-05-01T12:01:30.674Z,1.9000
2023-05-01T12:02:33.728Z,1.7231
2023-05-01T12:03:36.560Z,2.1923
2023-05-01T12:04:39.561Z,3.0308
2023-05-01T12:05:42.487Z,4.0615
2023-05-01T12:06:45.587Z,4.2154
2023-05-01T12:07:48.286Z,2.8154
2023-05-01T12:08:51.274Z,2.1154
2023-05-01T12:09:54.337Z,1.7923
2023-05-01T12:10:57.189Z,1.6615
2023-05-01T12:12:00.097Z,1.4000
2023-05-01T12:13:03.012Z,1.8538
2023-05-01T12:14:05.930Z,2.8231
2023-05-01T12:15:08.906Z,3.1231
2023-05-01T12:16:11.840Z,1.8923
2023-05-01T12:17:14.805Z,2.3538
2023-05-01T12:18:18.076Z,2.7462
2023-05-01T12:19:21.773Z,2.4538
2023-05-01T12:20:23.609Z,4.1692
2023-05-01T12:21:26.564Z,1.7692
2023-05-01T12:22:29.613Z,2.6385
2023-05-01T12:23:32.493Z,2.4923
2023-05-01T12:24:35.401Z,2.8077
2023-05-01T12:25:38.547Z,2.5385
2023-05-01T12:26:41.333Z,3.2692
2023-05-01T12:27:44.280Z,4.0923
2023-05-01T12:28:47.182Z,2.4538
2023-05-01T12:29:50.146Z,1.8846
2023-05-01T12:30:53.078Z,1.8615
2023-05-01T12:31:56.098Z,3.0615
2023-05-01T12:32:58.999Z,3.0154
2023-05-01T12:34:02.022Z,2.9385
2023-05-01T12:35:04.907Z,3.8154
2023-05-01T12:36:07.804Z,3.1385
2023-05-01T12:37:10.779Z,2.5846
2023-05-01T12:38:13.725Z,2.7846
2023-05-01T12:39:16.639Z,2.6385
2023-05-01T12:40:19.596Z,2.1000
2023-05-01T12:41:22.509Z,1.8692
2023-05-01T12:42:25.508Z,2.9231
2023-05-01T12:43:28.597Z,2.9846
2023-05-01T12:44:31.384Z,1.4462
2023-05-01T12:45:34.284Z,1.8769
2023-05-01T12:46:37.322Z,1.9692
2023-05-01T12:47:40.204Z,3.1231
2023-05-01T12:48:43.149Z,5.1000
2023-05-01T12:49:46.066Z,2.7615
2023-05-01T12:50:51.060Z,2.9077
2023-05-01T12:51:51.935Z,2.4769
2023-05-01T12:52:54.867Z,2.3308
2023-05-01T12:53:58.022Z,2.9000
2023-05-01T12:55:00.759Z,3.7308
2023-05-01T12:56:03.696Z,1.7000
2023-05-01T12:57:06.752Z,2.7077
2023-05-01T12:58:09.566Z,2.3923
2023-05-01T12:59:12.566Z,3.3846
2023-05-01T13:00:15.461Z,3.5846
2023-05-01T13:01:18.560Z,2.8923
2023-05-01T13:02:21.610Z,3.2154